sensor_id;sensor_type;location;lat;lon;timestamp;P1;durP1;ratioP1;P2;durP2;ratioP2
75937;SDS011;64615;32.062;34.834;2023-07-29T00:02:19;5.85;;;3.33;;
75937;SDS011;64615;32.062;34.834;2023-07-29T00:04:45;6.03;;;3.47;;
75937;SDS011;64615;32.062;34.834;2023-07-29T00:07:11;6.13;;;3.20;;
75937;SDS011;64615;32.062;34.834;2023-07-29T00:09:36;6.72;;;3.08;;
75937;SDS011;64615;32.062;34.834;2023-07-29T00:12:03;7.38;;;3.70;;
75937;SDS011;64615;32.062;34.834;2023-07-29T00:14:29;6.00;;;3.10;;
75937;SDS011;64615;32.062;34.834;2023-07-29T00:16:54;6.47;;;3.40;;
75937;SDS011;64615;32.062;34.834;2023-07-29T00:19:20;8.55;;;3.78;;
75937;SDS011;64615;32.062;34.834;2023-07-29T00:21:48;7.35;;;3.42;;
75937;SDS011;64615;32.062;34.834;2023-07-29T00:24:14;6.07;;;3.40;;
75937;SDS011;64615;32.062;34.834;2023-07-29T00:26:39;7.65;;;3.63;;
75937;SDS011;64615;32.062;34.834;2023-07-29T00:29:05;7.28;;;3.40;;
75937;SDS011;64615;32.062;34.834;2023-07-29T00:31:31;7.82;;;3.70;;
75937;SDS011;64615;32.062;34.834;2023-07-29T00:33:56;6.43;;;3.67;;
75937;SDS011;64615;32.062;34.834;2023-07-29T00:36:23;6.90;;;3.45;;
75937;SDS011;64615;32.062;34.834;2023-07-29T00:38:49;6.32;;;3.42;;
75937;SDS011;64615;32.062;34.834;2023-07-29T00:41:14;8.07;;;3.92;;
75937;SDS011;64615;32.062;34.834;2023-07-29T00:43:41;6.25;;;3.50;;
75937;SDS011;64615;32.062;34.834;2023-07-29T00:46:07;8.38;;;3.63;;
75937;SDS011;64615;32.062;34.834;2023-07-29T00:51:00;6.95;;;3.90;;
75937;SDS011;64615;32.062;34.834;2023-07-29T00:53:26;9.23;;;4.03;;
75937;SDS011;64615;32.062;34.834;2023-07-29T00:55:51;7.75;;;4.20;;
75937;SDS011;64615;32.062;34.834;2023-07-29T00:58:17;8.40;;;4.07;;
75937;SDS011;64615;32.062;34.834;2023-07-29T01:00:43;6.88;;;3.63;;
75937;SDS011;64615;32.062;34.834;2023-07-29T01:03:09;7.63;;;3.83;;
75937;SDS011;64615;32.062;34.834;2023-07-29T01:05:57;6.13;;;3.78;;
75937;SDS011;64615;32.062;34.834;2023-07-29T01:12:06;8.40;;;4.30;;
75937;SDS011;64615;32.062;34.834;2023-07-29T01:14:21;9.43;;;4.55;;
75937;SDS011;64615;32.062;34.834;2023-07-29T01:17:00;10.23;;;4.20;;
75937;SDS011;64615;32.062;34.834;2023-07-29T01:22:10;13.27;;;4.47;;
75937;SDS011;64615;32.062;34.834;2023-07-29T01:24:37;11.55;;;4.22;;
75937;SDS011;64615;32.062;34.834;2023-07-29T01:27:04;8.65;;;4.22;;
75937;SDS011;64615;32.062;34.834;2023-07-29T01:29:30;8.57;;;4.25;;
75937;SDS011;64615;32.062;34.834;2023-07-29T01:31:57;8.68;;;4.55;;
75937;SDS011;64615;32.062;34.834;2023-07-29T01:34:39;9.80;;;4.20;;
75937;SDS011;64615;32.062;34.834;2023-07-29T01:37:11;7.68;;;4.43;;
75937;SDS011;64615;32.062;34.834;2023-07-29T01:39:41;9.68;;;4.85;;
75937;SDS011;64615;32.062;34.834;2023-07-29T01:42:10;12.15;;;5.03;;
75937;SDS011;64615;32.062;34.834;2023-07-29T01:44:36;12.10;;;4.68;;
75937;SDS011;64615;32.062;34.834;2023-07-29T01:47:02;9.35;;;4.45;;
75937;SDS011;64615;32.062;34.834;2023-07-29T01:49:28;8.23;;;4.35;;
75937;SDS011;64615;32.062;34.834;2023-07-29T01:51:53;8.10;;;4.65;;
75937;SDS011;64615;32.062;34.834;2023-07-29T01:54:19;8.68;;;4.50;;
75937;SDS011;64615;32.062;34.834;2023-07-29T01:56:45;8.18;;;4.85;;
75937;SDS011;64615;32.062;34.834;2023-07-29T01:59:10;9.27;;;4.55;;
75937;SDS011;64615;32.062;34.834;2023-07-29T02:01:36;8.77;;;4.82;;
75937;SDS011;64615;32.062;34.834;2023-07-29T02:04:02;9.40;;;4.53;;
75937;SDS011;64615;32.062;34.834;2023-07-29T02:06:28;10.52;;;4.60;;
75937;SDS011;64615;32.062;34.834;2023-07-29T02:08:54;10.70;;;4.60;;
75937;SDS011;64615;32.062;34.834;2023-07-29T02:11:20;10.23;;;4.63;;
75937;SDS011;64615;32.062;34.834;2023-07-29T02:13:52;10.80;;;4.53;;
75937;SDS011;64615;32.062;34.834;2023-07-29T02:16:18;9.60;;;4.70;;
75937;SDS011;64615;32.062;34.834;2023-07-29T02:18:43;7.43;;;4.10;;
75937;SDS011;64615;32.062;34.834;2023-07-29T02:21:09;9.48;;;4.60;;
75937;SDS011;64615;32.062;34.834;2023-07-29T02:23:35;9.10;;;4.75;;
75937;SDS011;64615;32.062;34.834;2023-07-29T02:26:00;8.60;;;4.72;;
75937;SDS011;64615;32.062;34.834;2023-07-29T02:28:26;9.48;;;4.53;;
75937;SDS011;64615;32.062;34.834;2023-07-29T02:31:08;10.07;;;4.68;;
75937;SDS011;64615;32.062;34.834;2023-07-29T02:33:37;10.85;;;4.95;;
75937;SDS011;64615;32.062;34.834;2023-07-29T02:36:02;8.60;;;4.43;;
75937;SDS011;64615;32.062;34.834;2023-07-29T02:38:28;10.65;;;4.82;;
75937;SDS011;64615;32.062;34.834;2023-07-29T02:40:54;10.82;;;4.78;;
75937;SDS011;64615;32.062;34.834;2023-07-29T02:43:19;8.80;;;4.90;;
75937;SDS011;64615;32.062;34.834;2023-07-29T02:45:45;8.98;;;4.60;;
75937;SDS011;64615;32.062;34.834;2023-07-29T02:48:11;9.27;;;4.78;;
75937;SDS011;64615;32.062;34.834;2023-07-29T02:50:36;10.38;;;4.70;;
75937;SDS011;64615;32.062;34.834;2023-07-29T02:53:02;10.13;;;4.82;;
75937;SDS011;64615;32.062;34.834;2023-07-29T02:55:28;9.65;;;4.63;;
75937;SDS011;64615;32.062;34.834;2023-07-29T02:57:53;8.88;;;4.60;;
75937;SDS011;64615;32.062;34.834;2023-07-29T03:00:19;10.27;;;4.70;;
75937;SDS011;64615;32.062;34.834;2023-07-29T03:02:45;8.65;;;4.93;;
75937;SDS011;64615;32.062;34.834;2023-07-29T03:05:10;10.88;;;4.85;;
75937;SDS011;64615;32.062;34.834;2023-07-29T03:07:36;8.30;;;4.88;;
75937;SDS011;64615;32.062;34.834;2023-07-29T03:10:02;10.15;;;5.00;;
75937;SDS011;64615;32.062;34.834;2023-07-29T03:12:27;11.02;;;5.20;;
75937;SDS011;64615;32.062;34.834;2023-07-29T03:14:53;10.00;;;4.63;;
75937;SDS011;64615;32.062;34.834;2023-07-29T03:17:19;10.27;;;5.05;;
75937;SDS011;64615;32.062;34.834;2023-07-29T03:19:44;8.32;;;4.97;;
75937;SDS011;64615;32.062;34.834;2023-07-29T03:22:10;9.88;;;4.65;;
75937;SDS011;64615;32.062;34.834;2023-07-29T03:24:35;10.35;;;5.15;;
75937;SDS011;64615;32.062;34.834;2023-07-29T03:27:01;9.98;;;5.00;;
75937;SDS011;64615;32.062;34.834;2023-07-29T03:29:27;8.65;;;4.70;;
75937;SDS011;64615;32.062;34.834;2023-07-29T03:31:52;12.35;;;5.40;;
75937;SDS011;64615;32.062;34.834;2023-07-29T03:34:18;9.63;;;4.65;;
75937;SDS011;64615;32.062;34.834;2023-07-29T03:36:43;8.60;;;4.78;;
75937;SDS011;64615;32.062;34.834;2023-07-29T03:39:11;8.20;;;4.43;;
75937;SDS011;64615;32.062;34.834;2023-07-29T03:41:37;9.70;;;4.57;;
75937;SDS011;64615;32.062;34.834;2023-07-29T03:44:03;9.43;;;4.80;;
75937;SDS011;64615;32.062;34.834;2023-07-29T03:46:29;12.68;;;5.25;;
75937;SDS011;64615;32.062;34.834;2023-07-29T03:48:55;10.93;;;4.75;;
75937;SDS011;64615;32.062;34.834;2023-07-29T03:51:20;12.35;;;5.80;;
75937;SDS011;64615;32.062;34.834;2023-07-29T03:53:47;11.02;;;5.20;;
75937;SDS011;64615;32.062;34.834;2023-07-29T03:56:12;8.45;;;4.80;;
75937;SDS011;64615;32.062;34.834;2023-07-29T03:58:38;9.90;;;4.82;;
75937;SDS011;64615;32.062;34.834;2023-07-29T04:01:04;8.93;;;4.82;;
75937;SDS011;64615;32.062;34.834;2023-07-29T04:03:29;13.48;;;5.03;;
75937;SDS011;64615;32.062;34.834;2023-07-29T04:05:55;11.85;;;5.03;;
75937;SDS011;64615;32.062;34.834;2023-07-29T04:08:21;8.88;;;4.72;;
75937;SDS011;64615;32.062;34.834;2023-07-29T04:10:46;10.82;;;5.38;;
75937;SDS011;64615;32.062;34.834;2023-07-29T04:13:13;10.13;;;5.28;;
75937;SDS011;64615;32.062;34.834;2023-07-29T04:15:38;11.75;;;5.03;;
75937;SDS011;64615;32.062;34.834;2023-07-29T04:18:04;8.18;;;4.88;;
75937;SDS011;64615;32.062;34.834;2023-07-29T04:20:29;8.70;;;5.05;;
75937;SDS011;64615;32.062;34.834;2023-07-29T04:22:55;10.82;;;5.20;;
75937;SDS011;64615;32.062;34.834;2023-07-29T04:25:21;9.85;;;4.75;;
75937;SDS011;64615;32.062;34.834;2023-07-29T04:27:46;8.43;;;4.63;;
75937;SDS011;64615;32.062;34.834;2023-07-29T04:30:12;10.05;;;4.53;;
75937;SDS011;64615;32.062;34.834;2023-07-29T04:32:37;10.65;;;4.97;;
75937;SDS011;64615;32.062;34.834;2023-07-29T04:35:03;10.65;;;4.95;;
75937;SDS011;64615;32.062;34.834;2023-07-29T04:37:29;10.23;;;5.15;;
75937;SDS011;64615;32.062;34.834;2023-07-29T04:39:55;10.80;;;4.75;;
75937;SDS011;64615;32.062;34.834;2023-07-29T04:42:20;9.50;;;4.80;;
75937;SDS011;64615;32.062;34.834;2023-07-29T04:44:46;10.20;;;4.63;;
75937;SDS011;64615;32.062;34.834;2023-07-29T04:47:11;7.70;;;4.45;;
75937;SDS011;64615;32.062;34.834;2023-07-29T04:49:37;8.93;;;4.53;;
75937;SDS011;64615;32.062;34.834;2023-07-29T04:52:03;8.82;;;4.60;;
75937;SDS011;64615;32.062;34.834;2023-07-29T04:54:29;11.63;;;4.35;;
75937;SDS011;64615;32.062;34.834;2023-07-29T04:56:54;9.50;;;5.00;;
75937;SDS011;64615;32.062;34.834;2023-07-29T04:59:20;10.57;;;4.68;;
75937;SDS011;64615;32.062;34.834;2023-07-29T05:01:45;10.73;;;4.93;;
75937;SDS011;64615;32.062;34.834;2023-07-29T05:04:12;8.43;;;4.72;;
75937;SDS011;64615;32.062;34.834;2023-07-29T05:06:38;9.15;;;4.82;;
75937;SDS011;64615;32.062;34.834;2023-07-29T05:09:13;9.55;;;4.80;;
75937;SDS011;64615;32.062;34.834;2023-07-29T05:11:39;8.88;;;4.25;;
75937;SDS011;64615;32.062;34.834;2023-07-29T05:14:05;9.50;;;4.80;;
75937;SDS011;64615;32.062;34.834;2023-07-29T05:16:31;8.32;;;4.80;;
75937;SDS011;64615;32.062;34.834;2023-07-29T05:18:57;7.93;;;4.13;;
75937;SDS011;64615;32.062;34.834;2023-07-29T05:21:23;9.93;;;4.78;;
75937;SDS011;64615;32.062;34.834;2023-07-29T05:23:48;7.32;;;4.32;;
75937;SDS011;64615;32.062;34.834;2023-07-29T05:26:14;7.93;;;4.30;;
75937;SDS011;64615;32.062;34.834;2023-07-29T05:28:39;9.35;;;4.82;;
75937;SDS011;64615;32.062;34.834;2023-07-29T05:31:05;9.30;;;3.95;;
75937;SDS011;64615;32.062;34.834;2023-07-29T05:33:31;6.75;;;4.32;;
75937;SDS011;64615;32.062;34.834;2023-07-29T05:35:56;7.82;;;3.95;;
75937;SDS011;64615;32.062;34.834;2023-07-29T05:38:22;8.77;;;4.50;;
75937;SDS011;64615;32.062;34.834;2023-07-29T05:40:48;10.82;;;4.72;;
75937;SDS011;64615;32.062;34.834;2023-07-29T05:43:14;9.38;;;4.70;;
75937;SDS011;64615;32.062;34.834;2023-07-29T05:45:40;9.43;;;4.45;;
75937;SDS011;64615;32.062;34.834;2023-07-29T05:48:05;8.52;;;4.63;;
75937;SDS011;64615;32.062;34.834;2023-07-29T05:50:31;9.20;;;4.70;;
75937;SDS011;64615;32.062;34.834;2023-07-29T05:52:57;10.25;;;4.63;;
75937;SDS011;64615;32.062;34.834;2023-07-29T05:55:22;9.32;;;4.60;;
75937;SDS011;64615;32.062;34.834;2023-07-29T05:57:48;7.97;;;4.50;;
75937;SDS011;64615;32.062;34.834;2023-07-29T06:00:13;8.18;;;4.57;;
75937;SDS011;64615;32.062;34.834;2023-07-29T06:02:39;8.60;;;3.90;;
75937;SDS011;64615;32.062;34.834;2023-07-29T06:05:08;6.93;;;4.45;;
75937;SDS011;64615;32.062;34.834;2023-07-29T06:07:33;8.55;;;4.15;;
75937;SDS011;64615;32.062;34.834;2023-07-29T06:09:59;9.35;;;4.78;;
75937;SDS011;64615;32.062;34.834;2023-07-29T06:12:25;7.78;;;4.53;;
75937;SDS011;64615;32.062;34.834;2023-07-29T06:14:51;7.25;;;4.60;;
75937;SDS011;64615;32.062;34.834;2023-07-29T06:17:17;8.63;;;4.68;;
75937;SDS011;64615;32.062;34.834;2023-07-29T06:19:43;7.72;;;4.20;;
75937;SDS011;64615;32.062;34.834;2023-07-29T06:22:09;8.02;;;4.40;;
75937;SDS011;64615;32.062;34.834;2023-07-29T06:24:35;7.18;;;4.40;;
75937;SDS011;64615;32.062;34.834;2023-07-29T06:27:01;9.10;;;4.00;;
75937;SDS011;64615;32.062;34.834;2023-07-29T06:29:26;7.28;;;4.10;;
75937;SDS011;64615;32.062;34.834;2023-07-29T06:31:52;9.88;;;4.63;;
75937;SDS011;64615;32.062;34.834;2023-07-29T06:34:19;9.02;;;4.47;;
75937;SDS011;64615;32.062;34.834;2023-07-29T06:36:45;7.53;;;4.53;;
75937;SDS011;64615;32.062;34.834;2023-07-29T06:39:10;8.60;;;4.50;;
75937;SDS011;64615;32.062;34.834;2023-07-29T06:41:36;7.68;;;4.38;;
75937;SDS011;64615;32.062;34.834;2023-07-29T06:44:02;9.85;;;4.93;;
75937;SDS011;64615;32.062;34.834;2023-07-29T06:46:27;7.65;;;4.38;;
75937;SDS011;64615;32.062;34.834;2023-07-29T06:48:53;6.85;;;3.83;;
75937;SDS011;64615;32.062;34.834;2023-07-29T06:51:19;10.00;;;4.82;;
75937;SDS011;64615;32.062;34.834;2023-07-29T06:53:44;7.90;;;4.57;;
75937;SDS011;64615;32.062;34.834;2023-07-29T06:56:10;9.50;;;4.68;;
75937;SDS011;64615;32.062;34.834;2023-07-29T06:58:35;8.73;;;4.38;;
75937;SDS011;64615;32.062;34.834;2023-07-29T07:01:01;9.50;;;4.40;;
75937;SDS011;64615;32.062;34.834;2023-07-29T07:03:28;9.93;;;4.43;;
75937;SDS011;64615;32.062;34.834;2023-07-29T07:05:54;9.48;;;4.88;;
75937;SDS011;64615;32.062;34.834;2023-07-29T07:08:19;7.38;;;4.50;;
75937;SDS011;64615;32.062;34.834;2023-07-29T07:10:46;7.50;;;4.82;;
75937;SDS011;64615;32.062;34.834;2023-07-29T07:13:12;8.55;;;4.63;;
75937;SDS011;64615;32.062;34.834;2023-07-29T07:15:38;9.85;;;4.32;;
75937;SDS011;64615;32.062;34.834;2023-07-29T07:18:03;9.90;;;5.05;;
75937;SDS011;64615;32.062;34.834;2023-07-29T07:20:29;8.25;;;4.63;;
75937;SDS011;64615;32.062;34.834;2023-07-29T07:22:55;9.35;;;4.68;;
75937;SDS011;64615;32.062;34.834;2023-07-29T07:25:21;8.20;;;4.82;;
75937;SDS011;64615;32.062;34.834;2023-07-29T07:27:47;11.52;;;4.88;;
75937;SDS011;64615;32.062;34.834;2023-07-29T07:30:13;7.78;;;4.32;;
75937;SDS011;64615;32.062;34.834;2023-07-29T07:32:39;9.15;;;4.78;;
75937;SDS011;64615;32.062;34.834;2023-07-29T07:35:05;10.40;;;4.80;;
75937;SDS011;64615;32.062;34.834;2023-07-29T07:37:31;7.90;;;5.05;;
75937;SDS011;64615;32.062;34.834;2023-07-29T07:39:57;9.57;;;5.38;;
75937;SDS011;64615;32.062;34.834;2023-07-29T07:42:22;11.38;;;4.90;;
75937;SDS011;64615;32.062;34.834;2023-07-29T07:44:48;9.05;;;4.78;;
75937;SDS011;64615;32.062;34.834;2023-07-29T07:47:14;8.45;;;4.78;;
75937;SDS011;64615;32.062;34.834;2023-07-29T07:49:39;8.05;;;4.85;;
75937;SDS011;64615;32.062;34.834;2023-07-29T07:52:05;8.18;;;4.72;;
75937;SDS011;64615;32.062;34.834;2023-07-29T07:54:31;9.25;;;5.03;;
75937;SDS011;64615;32.062;34.834;2023-07-29T07:56:57;8.73;;;4.95;;
75937;SDS011;64615;32.062;34.834;2023-07-29T07:59:22;10.00;;;5.15;;
75937;SDS011;64615;32.062;34.834;2023-07-29T08:01:48;11.52;;;4.95;;
75937;SDS011;64615;32.062;34.834;2023-07-29T08:04:14;12.38;;;5.47;;
75937;SDS011;64615;32.062;34.834;2023-07-29T08:06:39;10.13;;;5.10;;
75937;SDS011;64615;32.062;34.834;2023-07-29T08:09:05;13.30;;;5.43;;
75937;SDS011;64615;32.062;34.834;2023-07-29T08:11:30;9.82;;;4.80;;
75937;SDS011;64615;32.062;34.834;2023-07-29T08:13:56;10.85;;;4.82;;
75937;SDS011;64615;32.062;34.834;2023-07-29T08:16:23;11.60;;;5.05;;
75937;SDS011;64615;32.062;34.834;2023-07-29T08:18:48;9.02;;;4.43;;
75937;SDS011;64615;32.062;34.834;2023-07-29T08:21:14;14.20;;;4.82;;
75937;SDS011;64615;32.062;34.834;2023-07-29T08:23:40;11.95;;;5.40;;
75937;SDS011;64615;32.062;34.834;2023-07-29T08:26:05;12.57;;;5.15;;
75937;SDS011;64615;32.062;34.834;2023-07-29T08:28:33;10.10;;;4.82;;
75937;SDS011;64615;32.062;34.834;2023-07-29T08:31:00;9.57;;;4.80;;
75937;SDS011;64615;32.062;34.834;2023-07-29T08:33:26;9.27;;;4.57;;
75937;SDS011;64615;32.062;34.834;2023-07-29T08:35:52;10.30;;;4.78;;
75937;SDS011;64615;32.062;34.834;2023-07-29T08:38:18;9.02;;;4.95;;
75937;SDS011;64615;32.062;34.834;2023-07-29T08:43:32;12.55;;;5.45;;
75937;SDS011;64615;32.062;34.834;2023-07-29T08:45:59;17.00;;;5.18;;
75937;SDS011;64615;32.062;34.834;2023-07-29T08:51:10;12.15;;;5.03;;
75937;SDS011;64615;32.062;34.834;2023-07-29T08:53:36;9.50;;;5.10;;
75937;SDS011;64615;32.062;34.834;2023-07-29T08:56:02;11.73;;;4.90;;
75937;SDS011;64615;32.062;34.834;2023-07-29T08:58:29;12.80;;;5.68;;
75937;SDS011;64615;32.062;34.834;2023-07-29T09:00:54;12.50;;;5.45;;
75937;SDS011;64615;32.062;34.834;2023-07-29T09:03:20;9.48;;;5.38;;
75937;SDS011;64615;32.062;34.834;2023-07-29T09:05:46;13.80;;;5.28;;
75937;SDS011;64615;32.062;34.834;2023-07-29T09:08:13;11.95;;;4.93;;
75937;SDS011;64615;32.062;34.834;2023-07-29T09:10:39;11.05;;;5.47;;
75937;SDS011;64615;32.062;34.834;2023-07-29T09:13:05;12.15;;;5.30;;
75937;SDS011;64615;32.062;34.834;2023-07-29T09:15:33;9.15;;;4.90;;
75937;SDS011;64615;32.062;34.834;2023-07-29T09:18:08;9.77;;;5.20;;
75937;SDS011;64615;32.062;34.834;2023-07-29T09:20:35;11.88;;;5.65;;
75937;SDS011;64615;32.062;34.834;2023-07-29T09:23:01;13.07;;;4.55;;
75937;SDS011;64615;32.062;34.834;2023-07-29T09:25:27;10.35;;;5.30;;
75937;SDS011;64615;32.062;34.834;2023-07-29T09:28:00;13.30;;;5.10;;
75937;SDS011;64615;32.062;34.834;2023-07-29T09:30:27;14.18;;;5.68;;
75937;SDS011;64615;32.062;34.834;2023-07-29T09:32:56;10.50;;;5.13;;
75937;SDS011;64615;32.062;34.834;2023-07-29T09:35:22;10.98;;;5.30;;
75937;SDS011;64615;32.062;34.834;2023-07-29T09:37:50;10.00;;;4.75;;
75937;SDS011;64615;32.062;34.834;2023-07-29T09:40:17;10.82;;;4.93;;
75937;SDS011;64615;32.062;34.834;2023-07-29T09:42:53;12.85;;;5.20;;
75937;SDS011;64615;32.062;34.834;2023-07-29T09:45:28;13.43;;;5.28;;
75937;SDS011;64615;32.062;34.834;2023-07-29T09:47:54;11.73;;;5.05;;
75937;SDS011;64615;32.062;34.834;2023-07-29T09:50:23;12.32;;;5.25;;
75937;SDS011;64615;32.062;34.834;2023-07-29T09:52:50;13.43;;;5.22;;
75937;SDS011;64615;32.062;34.834;2023-07-29T09:55:18;11.95;;;4.90;;
75937;SDS011;64615;32.062;34.834;2023-07-29T09:57:44;10.65;;;4.90;;
75937;SDS011;64615;32.062;34.834;2023-07-29T10:00:10;9.43;;;4.63;;
75937;SDS011;64615;32.062;34.834;2023-07-29T10:02:41;10.43;;;5.15;;
75937;SDS011;64615;32.062;34.834;2023-07-29T10:05:07;13.25;;;5.32;;
75937;SDS011;64615;32.062;34.834;2023-07-29T10:07:34;13.10;;;4.93;;
75937;SDS011;64615;32.062;34.834;2023-07-29T10:10:02;15.25;;;5.35;;
75937;SDS011;64615;32.062;34.834;2023-07-29T10:12:30;15.00;;;5.15;;
75937;SDS011;64615;32.062;34.834;2023-07-29T10:15:04;12.82;;;5.50;;
75937;SDS011;64615;32.062;34.834;2023-07-29T10:17:35;10.15;;;4.55;;
75937;SDS011;64615;32.062;34.834;2023-07-29T10:20:03;13.52;;;5.13;;
75937;SDS011;64615;32.062;34.834;2023-07-29T10:22:35;11.10;;;5.20;;
75937;SDS011;64615;32.062;34.834;2023-07-29T10:25:18;10.27;;;4.90;;
75937;SDS011;64615;32.062;34.834;2023-07-29T10:27:52;13.93;;;5.47;;
75937;SDS011;64615;32.062;34.834;2023-07-29T10:30:21;11.77;;;5.32;;
75937;SDS011;64615;32.062;34.834;2023-07-29T10:32:47;13.52;;;5.25;;
75937;SDS011;64615;32.062;34.834;2023-07-29T10:35:15;13.43;;;4.68;;
75937;SDS011;64615;32.062;34.834;2023-07-29T10:37:41;11.02;;;4.55;;
75937;SDS011;64615;32.062;34.834;2023-07-29T10:40:08;8.93;;;4.85;;
75937;SDS011;64615;32.062;34.834;2023-07-29T10:45:21;12.48;;;4.88;;
75937;SDS011;64615;32.062;34.834;2023-07-29T10:47:47;13.32;;;4.70;;
75937;SDS011;64615;32.062;34.834;2023-07-29T10:50:20;12.63;;;5.30;;
75937;SDS011;64615;32.062;34.834;2023-07-29T10:52:50;10.30;;;4.72;;
75937;SDS011;64615;32.062;34.834;2023-07-29T10:55:25;10.25;;;4.47;;
75937;SDS011;64615;32.062;34.834;2023-07-29T11:00:45;10.52;;;5.00;;
75937;SDS011;64615;32.062;34.834;2023-07-29T11:03:11;10.30;;;4.90;;
75937;SDS011;64615;32.062;34.834;2023-07-29T11:05:44;12.65;;;5.07;;
75937;SDS011;64615;32.062;34.834;2023-07-29T11:08:22;10.40;;;4.88;;
75937;SDS011;64615;32.062;34.834;2023-07-29T11:11:05;10.85;;;4.65;;
75937;SDS011;64615;32.062;34.834;2023-07-29T11:13:33;13.82;;;4.70;;
75937;SDS011;64615;32.062;34.834;2023-07-29T11:16:01;11.85;;;4.75;;
75937;SDS011;64615;32.062;34.834;2023-07-29T11:18:28;14.27;;;4.90;;
75937;SDS011;64615;32.062;34.834;2023-07-29T11:20:55;10.82;;;4.60;;
75937;SDS011;64615;32.062;34.834;2023-07-29T11:23:31;8.65;;;4.25;;
75937;SDS011;64615;32.062;34.834;2023-07-29T11:26:00;11.23;;;4.80;;
75937;SDS011;64615;32.062;34.834;2023-07-29T11:28:27;11.60;;;4.80;;
75937;SDS011;64615;32.062;34.834;2023-07-29T11:30:56;9.13;;;4.90;;
75937;SDS011;64615;32.062;34.834;2023-07-29T11:33:24;8.80;;;4.50;;
75937;SDS011;64615;32.062;34.834;2023-07-29T11:38:17;10.25;;;4.60;;
75937;SDS011;64615;32.062;34.834;2023-07-29T11:40:44;13.50;;;4.75;;
75937;SDS011;64615;32.062;34.834;2023-07-29T11:43:22;12.15;;;5.10;;
75937;SDS011;64615;32.062;34.834;2023-07-29T11:45:47;9.25;;;4.40;;
75937;SDS011;64615;32.062;34.834;2023-07-29T11:48:13;9.27;;;4.47;;
75937;SDS011;64615;32.062;34.834;2023-07-29T11:50:39;10.30;;;4.28;;
75937;SDS011;64615;32.062;34.834;2023-07-29T11:53:05;10.32;;;4.20;;
75937;SDS011;64615;32.062;34.834;2023-07-29T11:55:30;10.23;;;4.25;;
75937;SDS011;64615;32.062;34.834;2023-07-29T11:57:58;11.23;;;4.45;;
75937;SDS011;64615;32.062;34.834;2023-07-29T12:00:24;8.95;;;4.28;;
75937;SDS011;64615;32.062;34.834;2023-07-29T12:02:51;10.15;;;4.68;;
75937;SDS011;64615;32.062;34.834;2023-07-29T12:05:16;10.02;;;4.72;;
75937;SDS011;64615;32.062;34.834;2023-07-29T12:07:44;8.18;;;4.28;;
75937;SDS011;64615;32.062;34.834;2023-07-29T12:10:10;9.10;;;3.95;;
75937;SDS011;64615;32.062;34.834;2023-07-29T12:12:46;11.60;;;4.15;;
75937;SDS011;64615;32.062;34.834;2023-07-29T12:15:12;7.57;;;4.22;;
75937;SDS011;64615;32.062;34.834;2023-07-29T12:17:41;9.55;;;4.25;;
75937;SDS011;64615;32.062;34.834;2023-07-29T12:20:08;11.68;;;4.20;;
75937;SDS011;64615;32.062;34.834;2023-07-29T12:22:35;10.32;;;4.53;;
75937;SDS011;64615;32.062;34.834;2023-07-29T12:25:01;10.23;;;4.00;;
75937;SDS011;64615;32.062;34.834;2023-07-29T12:27:29;10.07;;;4.25;;
75937;SDS011;64615;32.062;34.834;2023-07-29T12:29:56;9.07;;;4.53;;
75937;SDS011;64615;32.062;34.834;2023-07-29T12:32:24;8.00;;;3.72;;
75937;SDS011;64615;32.062;34.834;2023-07-29T12:34:53;8.25;;;4.13;;
75937;SDS011;64615;32.062;34.834;2023-07-29T12:37:18;11.20;;;4.30;;
75937;SDS011;64615;32.062;34.834;2023-07-29T12:39:44;9.63;;;4.00;;
75937;SDS011;64615;32.062;34.834;2023-07-29T12:42:10;9.10;;;3.83;;
75937;SDS011;64615;32.062;34.834;2023-07-29T12:44:37;11.50;;;4.00;;
75937;SDS011;64615;32.062;34.834;2023-07-29T12:47:04;9.32;;;3.92;;
75937;SDS011;64615;32.062;34.834;2023-07-29T12:49:31;10.30;;;4.15;;
75937;SDS011;64615;32.062;34.834;2023-07-29T12:51:57;11.10;;;3.70;;
75937;SDS011;64615;32.062;34.834;2023-07-29T12:54:23;10.82;;;4.32;;
75937;SDS011;64615;32.062;34.834;2023-07-29T12:56:48;8.10;;;3.97;;
75937;SDS011;64615;32.062;34.834;2023-07-29T12:59:14;9.48;;;3.63;;
75937;SDS011;64615;32.062;34.834;2023-07-29T13:01:40;7.90;;;3.95;;
75937;SDS011;64615;32.062;34.834;2023-07-29T13:04:06;10.68;;;3.95;;
75937;SDS011;64615;32.062;34.834;2023-07-29T13:06:31;7.72;;;3.67;;
75937;SDS011;64615;32.062;34.834;2023-07-29T13:08:57;8.55;;;3.75;;
75937;SDS011;64615;32.062;34.834;2023-07-29T13:11:23;9.73;;;3.58;;
75937;SDS011;64615;32.062;34.834;2023-07-29T13:13:49;9.18;;;3.60;;
75937;SDS011;64615;32.062;34.834;2023-07-29T13:16:15;9.35;;;3.92;;
75937;SDS011;64615;32.062;34.834;2023-07-29T13:18:40;8.27;;;3.70;;
75937;SDS011;64615;32.062;34.834;2023-07-29T13:21:08;8.10;;;3.88;;
75937;SDS011;64615;32.062;34.834;2023-07-29T13:23:33;6.20;;;3.50;;
75937;SDS011;64615;32.062;34.834;2023-07-29T13:25:59;9.60;;;4.07;;
75937;SDS011;64615;32.062;34.834;2023-07-29T13:28:25;8.32;;;3.75;;
75937;SDS011;64615;32.062;34.834;2023-07-29T13:30:50;8.25;;;3.85;;
75937;SDS011;64615;32.062;34.834;2023-07-29T13:33:16;9.65;;;3.80;;
75937;SDS011;64615;32.062;34.834;2023-07-29T13:35:42;10.13;;;3.60;;
75937;SDS011;64615;32.062;34.834;2023-07-29T13:38:07;8.90;;;4.05;;
75937;SDS011;64615;32.062;34.834;2023-07-29T13:40:34;8.98;;;3.60;;
75937;SDS011;64615;32.062;34.834;2023-07-29T13:42:59;6.78;;;3.42;;
75937;SDS011;64615;32.062;34.834;2023-07-29T13:45:25;9.30;;;3.50;;
75937;SDS011;64615;32.062;34.834;2023-07-29T13:47:51;6.68;;;3.40;;
75937;SDS011;64615;32.062;34.834;2023-07-29T13:50:17;9.75;;;3.60;;
75937;SDS011;64615;32.062;34.834;2023-07-29T13:52:43;7.78;;;3.80;;
75937;SDS011;64615;32.062;34.834;2023-07-29T13:55:09;10.13;;;3.90;;
75937;SDS011;64615;32.062;34.834;2023-07-29T13:57:36;6.53;;;3.50;;
75937;SDS011;64615;32.062;34.834;2023-07-29T14:00:04;7.60;;;3.33;;
75937;SDS011;64615;32.062;34.834;2023-07-29T14:02:30;8.02;;;3.55;;
75937;SDS011;64615;32.062;34.834;2023-07-29T14:04:56;6.80;;;3.20;;
75937;SDS011;64615;32.062;34.834;2023-07-29T14:07:22;7.97;;;3.35;;
75937;SDS011;64615;32.062;34.834;2023-07-29T14:09:48;7.72;;;3.42;;
75937;SDS011;64615;32.062;34.834;2023-07-29T14:12:13;6.72;;;3.63;;
75937;SDS011;64615;32.062;34.834;2023-07-29T14:14:42;9.27;;;3.95;;
75937;SDS011;64615;32.062;34.834;2023-07-29T14:17:08;8.75;;;3.38;;
75937;SDS011;64615;32.062;34.834;2023-07-29T14:19:35;9.57;;;3.58;;
75937;SDS011;64615;32.062;34.834;2023-07-29T14:22:01;9.60;;;3.78;;
75937;SDS011;64615;32.062;34.834;2023-07-29T14:24:26;7.32;;;3.67;;
75937;SDS011;64615;32.062;34.834;2023-07-29T14:26:52;7.97;;;3.70;;
75937;SDS011;64615;32.062;34.834;2023-07-29T14:29:18;6.10;;;3.20;;
75937;SDS011;64615;32.062;34.834;2023-07-29T14:31:43;7.97;;;3.22;;
75937;SDS011;64615;32.062;34.834;2023-07-29T14:34:09;8.35;;;3.65;;
75937;SDS011;64615;32.062;34.834;2023-07-29T14:36:36;8.80;;;3.45;;
75937;SDS011;64615;32.062;34.834;2023-07-29T14:39:02;8.27;;;3.35;;
75937;SDS011;64615;32.062;34.834;2023-07-29T14:41:27;8.75;;;3.90;;
75937;SDS011;64615;32.062;34.834;2023-07-29T14:43:53;8.35;;;3.63;;
75937;SDS011;64615;32.062;34.834;2023-07-29T14:46:19;7.38;;;3.28;;
75937;SDS011;64615;32.062;34.834;2023-07-29T14:48:44;9.68;;;3.65;;